sensor_id;sensor_type;location;lat;lon;timestamp;pressure;altitude;pressure_sealevel;temperature;humidity
5780;BME280;2916;49.798;10.022;2023-03-31T00:00:16;146533.44;;;9.08;95.15
5780;BME280;2916;49.798;10.022;2023-03-31T00:02:44;146640.03;;;9.52;95.27
5780;BME280;2916;49.798;10.022;2023-03-31T00:05:11;146488.78;;;8.90;95.28
5780;BME280;2916;49.798;10.022;2023-03-31T00:07:44;146595.41;;;9.33;95.41
5780;BME280;2916;49.798;10.022;2023-03-31T00:10:13;146610.28;;;9.40;95.16
5780;BME280;2916;49.798;10.022;2023-03-31T00:12:44;146592.91;;;9.32;95.28
5780;BME280;2916;49.798;10.022;2023-03-31T00:15:12;146657.41;;;9.59;95.31
5780;BME280;2916;49.798;10.022;2023-03-31T00:17:39;146648.72;;;9.55;95.41
5780;BME280;2916;49.798;10.022;2023-03-31T00:20:08;146649.97;;;9.56;95.21
5780;BME280;2916;49.798;10.022;2023-03-31T00:22:37;146481.34;;;8.87;95.29
5780;BME280;2916;49.798;10.022;2023-03-31T00:25:09;146511.09;;;8.99;94.71
5780;BME280;2916;49.798;10.022;2023-03-31T00:27:36;146625.16;;;9.46;94.43
5780;BME280;2916;49.798;10.022;2023-03-31T00:30:05;146668.56;;;9.64;94.98
5780;BME280;2916;49.798;10.022;2023-03-31T00:32:32;146667.34;;;9.63;94.66
5780;BME280;2916;49.798;10.022;2023-03-31T00:35:03;146632.59;;;9.49;95.04
5780;BME280;2916;49.798;10.022;2023-03-31T00:37:30;146595.41;;;9.33;95.66
5780;BME280;2916;49.798;10.022;2023-03-31T00:39:59;146618.97;;;9.43;95.53
5780;BME280;2916;49.798;10.022;2023-03-31T00:42:27;146414.41;;;8.59;95.46
5780;BME280;2916;49.798;10.022;2023-03-31T00:45:27;146580.50;;;9.27;95.42
5780;BME280;2916;49.798;10.022;2023-03-31T00:48:02;146481.34;;;8.87;95.88
5780;BME280;2916;49.798;10.022;2023-03-31T00:50:40;146609.00;;;9.39;96.05
5780;BME280;2916;49.798;10.022;2023-03-31T00:53:14;146637.53;;;9.51;95.93
5780;BME280;2916;49.798;10.022;2023-03-31T00:55:48;146585.47;;;9.29;96.04
5780;BME280;2916;49.798;10.022;2023-03-31T00:58:20;146597.84;;;9.34;96.47
5780;BME280;2916;49.798;10.022;2023-03-31T01:00:55;146517.31;;;9.01;96.09
5780;BME280;2916;49.798;10.022;2023-03-31T01:03:23;146552.03;;;9.16;96.37
5780;BME280;2916;49.798;10.022;2023-03-31T01:05:54;146664.81;;;9.62;96.59
5780;BME280;2916;49.798;10.022;2023-03-31T01:08:26;146612.75;;;9.41;96.57
5780;BME280;2916;49.798;10.022;2023-03-31T01:10:57;146669.81;;;9.64;96.47
5780;BME280;2916;49.798;10.022;2023-03-31T01:13:28;146672.28;;;9.65;96.70
5780;BME280;2916;49.798;10.022;2023-03-31T01:15:56;146675.97;;;9.67;97.26
5780;BME280;2916;49.798;10.022;2023-03-31T01:18:24;146677.25;;;9.67;96.37
5780;BME280;2916;49.798;10.022;2023-03-31T01:28:13;146699.56;;;9.76;96.36
5780;BME280;2916;49.798;10.022;2023-03-31T01:34:52;146616.47;;;9.42;96.56
5780;BME280;2916;49.798;10.022;2023-03-31T01:38:09;146521.00;;;9.03;95.92
5780;BME280;2916;49.798;10.022;2023-03-31T01:43:51;146726.84;;;9.88;94.62
5780;BME280;2916;49.798;10.022;2023-03-31T01:46:27;146749.16;;;9.97;94.03
5780;BME280;2916;49.798;10.022;2023-03-31T01:49:07;146714.47;;;9.82;93.70
5780;BME280;2916;49.798;10.022;2023-03-31T01:51:49;146689.63;;;9.72;93.03
5780;BME280;2916;49.798;10.022;2023-03-31T01:54:23;146769.00;;;10.05;93.15
5780;BME280;2916;49.798;10.022;2023-03-31T01:56:59;146724.38;;;9.87;92.92
5780;BME280;2916;49.798;10.022;2023-03-31T01:59:34;146637.53;;;9.51;92.90
5780;BME280;2916;49.798;10.022;2023-03-31T02:02:09;146764.06;;;10.03;93.42
5780;BME280;2916;49.798;10.022;2023-03-31T02:04:45;146664.81;;;9.62;92.18
5780;BME280;2916;49.798;10.022;2023-03-31T02:07:20;146684.66;;;9.70;92.25
5780;BME280;2916;49.798;10.022;2023-03-31T02:09:56;146675.97;;;9.67;91.94
5780;BME280;2916;49.798;10.022;2023-03-31T02:12:32;146533.44;;;9.08;91.31
5780;BME280;2916;49.798;10.022;2023-03-31T02:15:04;146693.34;;;9.74;90.99
5780;BME280;2916;49.798;10.022;2023-03-31T02:17:35;146610.28;;;9.40;90.79
5780;BME280;2916;49.798;10.022;2023-03-31T02:20:09;146627.63;;;9.47;90.97
5780;BME280;2916;49.798;10.022;2023-03-31T02:22:42;146746.69;;;9.96;91.27
5780;BME280;2916;49.798;10.022;2023-03-31T02:25:14;146734.31;;;9.91;91.46
5780;BME280;2916;49.798;10.022;2023-03-31T02:27:50;146780.16;;;10.09;90.45
5780;BME280;2916;49.798;10.022;2023-03-31T02:30:19;146460.28;;;8.78;90.21
5780;BME280;2916;49.798;10.022;2023-03-31T02:32:47;146731.78;;;9.90;90.13
5780;BME280;2916;49.798;10.022;2023-03-31T02:35:17;146482.56;;;8.87;89.99
5780;BME280;2916;49.798;10.022;2023-03-31T02:37:46;146791.38;;;10.14;90.08
5780;BME280;2916;49.798;10.022;2023-03-31T02:40:18;146705.78;;;9.79;90.01
5780;BME280;2916;49.798;10.022;2023-03-31T02:42:48;146797.53;;;10.17;90.44
5780;BME280;2916;49.798;10.022;2023-03-31T02:45:42;146695.84;;;9.75;90.19
5780;BME280;2916;49.798;10.022;2023-03-31T02:48:15;146801.28;;;10.18;89.83
5780;BME280;2916;49.798;10.022;2023-03-31T02:57:29;146524.75;;;9.04;90.58
5780;BME280;2916;49.798;10.022;2023-03-31T03:00:13;146801.28;;;10.18;90.35
5780;BME280;2916;49.798;10.022;2023-03-31T03:03:01;146597.84;;;9.34;90.40
5780;BME280;2916;49.798;10.022;2023-03-31T03:05:40;146744.22;;;9.95;90.64
5780;BME280;2916;49.798;10.022;2023-03-31T03:08:24;146797.53;;;10.17;90.56
5780;BME280;2916;49.798;10.022;2023-03-31T03:11:05;146811.22;;;10.22;89.66
5780;BME280;2916;49.798;10.022;2023-03-31T03:13:44;146751.63;;;9.98;89.81
5780;BME280;2916;49.798;10.022;2023-03-31T03:16:21;146694.56;;;9.74;88.88
5780;BME280;2916;49.798;10.022;2023-03-31T03:18:56;146735.53;;;9.91;89.65
5780;BME280;2916;49.798;10.022;2023-03-31T03:21:24;146807.47;;;10.21;90.06
5780;BME280;2916;49.798;10.022;2023-03-31T03:23:51;146642.50;;;9.53;90.03
5780;BME280;2916;49.798;10.022;2023-03-31T03:26:20;146719.41;;;9.84;89.11
5780;BME280;2916;49.798;10.022;2023-03-31T03:28:48;146782.69;;;10.11;89.00
5780;BME280;2916;49.798;10.022;2023-03-31T03:31:17;146788.84;;;10.13;87.77
5780;BME280;2916;49.798;10.022;2023-03-31T03:33:44;146845.97;;;10.37;88.46
5780;BME280;2916;49.798;10.022;2023-03-31T03:36:12;146716.94;;;9.83;88.44
5780;BME280;2916;49.798;10.022;2023-03-31T03:38:39;146752.91;;;9.98;89.36
5780;BME280;2916;49.798;10.022;2023-03-31T03:41:06;146678.50;;;9.68;90.29
5780;BME280;2916;49.798;10.022;2023-03-31T03:43:34;146796.31;;;10.16;91.87
5780;BME280;2916;49.798;10.022;2023-03-31T03:46:01;146775.22;;;10.07;91.35
5780;BME280;2916;49.798;10.022;2023-03-31T03:48:29;146411.97;;;8.58;92.70
5780;BME280;2916;49.798;10.022;2023-03-31T03:50:59;146759.09;;;10.01;93.10
5780;BME280;2916;49.798;10.022;2023-03-31T03:53:27;146699.56;;;9.76;94.47
5780;BME280;2916;49.798;10.022;2023-03-31T03:55:54;146677.25;;;9.67;95.16
5780;BME280;2916;49.798;10.022;2023-03-31T03:58:21;146716.94;;;9.83;96.26
5780;BME280;2916;49.798;10.022;2023-03-31T04:00:48;146607.78;;;9.39;97.53
5780;BME280;2916;49.798;10.022;2023-03-31T04:03:16;146654.91;;;9.58;96.52
5780;BME280;2916;49.798;10.022;2023-03-31T04:05:46;146600.38;;;9.36;96.30
5780;BME280;2916;49.798;10.022;2023-03-31T04:08:14;146694.56;;;9.74;96.38
5780;BME280;2916;49.798;10.022;2023-03-31T04:10:43;146617.69;;;9.43;96.79
5780;BME280;2916;49.798;10.022;2023-03-31T04:13:11;146587.94;;;9.30;97.76
5780;BME280;2916;49.798;10.022;2023-03-31T04:15:38;146680.94;;;9.69;96.49
5780;BME280;2916;49.798;10.022;2023-03-31T04:18:06;146564.41;;;9.21;97.85
5780;BME280;2916;49.798;10.022;2023-03-31T04:20:35;146307.84;;;8.15;96.91
5780;BME280;2916;49.798;10.022;2023-03-31T04:23:04;146568.13;;;9.22;97.51
5780;BME280;2916;49.798;10.022;2023-03-31T04:25:34;146667.34;;;9.63;98.02
5780;BME280;2916;49.798;10.022;2023-03-31T04:28:04;146592.91;;;9.32;98.36
5780;BME280;2916;49.798;10.022;2023-03-31T04:30:32;146594.16;;;9.33;98.16
5780;BME280;2916;49.798;10.022;2023-03-31T04:33:02;146614.00;;;9.41;98.10
5780;BME280;2916;49.798;10.022;2023-03-31T04:35:32;146597.84;;;9.34;97.93
5780;BME280;2916;49.798;10.022;2023-03-31T04:38:16;146556.97;;;9.18;97.25
5780;BME280;2916;49.798;10.022;2023-03-31T04:40:46;146573.09;;;9.24;97.20
5780;BME280;2916;49.798;10.022;2023-03-31T04:43:14;146647.50;;;9.55;97.21
5780;BME280;2916;49.798;10.022;2023-03-31T04:45:41;146575.56;;;9.25;99.00
5780;BME280;2916;49.798;10.022;2023-03-31T04:48:09;146646.22;;;9.54;98.51
5780;BME280;2916;49.798;10.022;2023-03-31T04:50:37;146640.03;;;9.52;97.77
5780;BME280;2916;49.798;10.022;2023-03-31T04:53:05;146533.44;;;9.08;97.98
5780;BME280;2916;49.798;10.022;2023-03-31T04:55:34;146538.34;;;9.10;97.60
5780;BME280;2916;49.798;10.022;2023-03-31T04:58:01;146575.56;;;9.25;97.38
5780;BME280;2916;49.798;10.022;2023-03-31T05:00:28;146579.25;;;9.27;97.00
5780;BME280;2916;49.798;10.022;2023-03-31T05:02:55;146607.78;;;9.39;96.78
5780;BME280;2916;49.798;10.022;2023-03-31T05:05:23;146617.69;;;9.43;96.88
5780;BME280;2916;49.798;10.022;2023-03-31T05:07:50;146597.84;;;9.34;96.59
5780;BME280;2916;49.798;10.022;2023-03-31T05:10:17;146533.44;;;9.08;96.20
5780;BME280;2916;49.798;10.022;2023-03-31T05:12:46;146620.22;;;9.44;96.07
5780;BME280;2916;49.798;10.022;2023-03-31T05:15:14;146476.41;;;8.84;96.25
5780;BME280;2916;49.798;10.022;2023-03-31T05:17:41;146630.13;;;9.48;96.96
5780;BME280;2916;49.798;10.022;2023-03-31T05:20:10;146511.09;;;8.99;96.75
5780;BME280;2916;49.798;10.022;2023-03-31T05:22:40;146574.31;;;9.25;96.05
5780;BME280;2916;49.798;10.022;2023-03-31T05:25:08;146451.59;;;8.74;95.01
5780;BME280;2916;49.798;10.022;2023-03-31T05:27:36;146614.00;;;9.41;94.76
5780;BME280;2916;49.798;10.022;2023-03-31T05:30:07;146548.28;;;9.14;95.09
5780;BME280;2916;49.798;10.022;2023-03-31T05:32:34;146483.81;;;8.88;94.50
5780;BME280;2916;49.798;10.022;2023-03-31T05:35:02;146657.41;;;9.59;94.92
5780;BME280;2916;49.798;10.022;2023-03-31T05:37:29;146372.31;;;8.42;95.33
5780;BME280;2916;49.798;10.022;2023-03-31T05:39:56;146351.16;;;8.33;94.96
5780;BME280;2916;49.798;10.022;2023-03-31T05:42:24;146600.38;;;9.36;95.48
5780;BME280;2916;49.798;10.022;2023-03-31T05:44:51;146649.97;;;9.56;95.61
5780;BME280;2916;49.798;10.022;2023-03-31T05:47:19;146649.97;;;9.56;94.80
5780;BME280;2916;49.798;10.022;2023-03-31T05:49:48;146379.72;;;8.45;95.53
5780;BME280;2916;49.798;10.022;2023-03-31T05:52:16;146485.03;;;8.88;95.76
5780;BME280;2916;49.798;10.022;2023-03-31T05:54:43;146428.06;;;8.65;95.90
5780;BME280;2916;49.798;10.022;2023-03-31T05:57:11;146362.41;;;8.38;96.03
5780;BME280;2916;49.798;10.022;2023-03-31T05:59:38;146630.13;;;9.48;96.81
5780;BME280;2916;49.798;10.022;2023-03-31T06:02:07;146507.38;;;8.97;98.55
5780;BME280;2916;49.798;10.022;2023-03-31T06:04:41;146612.75;;;9.41;99.46
5780;BME280;2916;49.798;10.022;2023-03-31T06:07:08;146570.56;;;9.23;100.00
5780;BME280;2916;49.798;10.022;2023-03-31T06:09:36;146486.31;;;8.89;100.00
5780;BME280;2916;49.798;10.022;2023-03-31T06:12:04;146452.84;;;8.75;100.00
5780;BME280;2916;49.798;10.022;2023-03-31T06:14:33;146569.34;;;9.23;100.00
5780;BME280;2916;49.798;10.022;2023-03-31T06:17:00;146452.84;;;8.75;100.00
5780;BME280;2916;49.798;10.022;2023-03-31T06:19:27;146463.97;;;8.79;100.00
5780;BME280;2916;49.798;10.022;2023-03-31T06:21:57;146139.38;;;7.46;100.00
5780;BME280;2916;49.798;10.022;2023-03-31T06:24:25;146491.25;;;8.91;100.00
5780;BME280;2916;49.798;10.022;2023-03-31T06:27:01;146471.44;;;8.82;100.00
5780;BME280;2916;49.798;10.022;2023-03-31T06:29:34;146165.41;;;7.56;100.00
5780;BME280;2916;49.798;10.022;2023-03-31T06:32:05;146315.28;;;8.18;100.00
5780;BME280;2916;49.798;10.022;2023-03-31T06:34:32;146138.16;;;7.45;100.00
5780;BME280;2916;49.798;10.022;2023-03-31T06:37:01;146072.53;;;7.18;100.00
5780;BME280;2916;49.798;10.022;2023-03-31T06:39:29;146518.53;;;9.02;100.00
5780;BME280;2916;49.798;10.022;2023-03-31T06:41:56;146522.22;;;9.03;100.00
5780;BME280;2916;49.798;10.022;2023-03-31T06:44:26;146310.28;;;8.16;100.00
5780;BME280;2916;49.798;10.022;2023-03-31T06:46:55;146395.84;;;8.51;100.00
5780;BME280;2916;49.798;10.022;2023-03-31T06:49:24;146030.47;;;7.01;100.00
5780;BME280;2916;49.798;10.022;2023-03-31T06:51:51;146411.97;;;8.58;100.00
5780;BME280;2916;49.798;10.022;2023-03-31T06:54:20;146490.03;;;8.90;100.00
5780;BME280;2916;49.798;10.022;2023-03-31T06:56:47;146421.88;;;8.62;100.00
5780;BME280;2916;49.798;10.022;2023-03-31T06:59:14;146466.50;;;8.80;100.00
5780;BME280;2916;49.798;10.022;2023-03-31T07:01:41;146462.75;;;8.79;100.00
5780;BME280;2916;49.798;10.022;2023-03-31T07:04:10;146473.91;;;8.83;100.00
5780;BME280;2916;49.798;10.022;2023-03-31T07:06:37;146471.44;;;8.82;100.00
5780;BME280;2916;49.798;10.022;2023-03-31T07:09:05;146463.97;;;8.79;100.00
5780;BME280;2916;49.798;10.022;2023-03-31T07:11:33;146523.50;;;9.04;100.00
5780;BME280;2916;49.798;10.022;2023-03-31T07:14:00;146530.91;;;9.07;100.00
5780;BME280;2916;49.798;10.022;2023-03-31T07:16:27;146527.22;;;9.05;100.00
5780;BME280;2916;49.798;10.022;2023-03-31T07:18:56;146525.97;;;9.05;100.00
5780;BME280;2916;49.798;10.022;2023-03-31T07:21:24;146534.66;;;9.08;100.00
5780;BME280;2916;49.798;10.022;2023-03-31T07:23:51;146535.91;;;9.09;100.00
5780;BME280;2916;49.798;10.022;2023-03-31T07:26:19;146539.59;;;9.10;100.00
5780;BME280;2916;49.798;10.022;2023-03-31T07:28:47;146517.31;;;9.01;100.00
5780;BME280;2916;49.798;10.022;2023-03-31T07:31:14;146539.59;;;9.10;100.00
5780;BME280;2916;49.798;10.022;2023-03-31T07:33:42;146519.75;;;9.02;100.00
5780;BME280;2916;49.798;10.022;2023-03-31T07:36:09;146517.31;;;9.01;100.00
5780;BME280;2916;49.798;10.022;2023-03-31T07:38:38;146516.06;;;9.01;100.00
5780;BME280;2916;49.798;10.022;2023-03-31T07:41:10;146519.75;;;9.02;100.00
5780;BME280;2916;49.798;10.022;2023-03-31T07:43:38;146543.34;;;9.12;100.00
5780;BME280;2916;49.798;10.022;2023-03-31T07:46:13;146533.44;;;9.08;100.00
5780;BME280;2916;49.798;10.022;2023-03-31T07:48:41;146558.19;;;9.18;100.00
5780;BME280;2916;49.798;10.022;2023-03-31T07:51:08;146556.97;;;9.18;100.00
5780;BME280;2916;49.798;10.022;2023-03-31T07:53:36;146538.34;;;9.10;100.00
5780;BME280;2916;49.798;10.022;2023-03-31T07:56:03;146538.34;;;9.10;100.00
5780;BME280;2916;49.798;10.022;2023-03-31T07:58:30;146553.25;;;9.16;100.00
5780;BME280;2916;49.798;10.022;2023-03-31T08:00:58;146569.34;;;9.23;100.00
5780;BME280;2916;49.798;10.022;2023-03-31T08:03:27;146569.34;;;9.23;100.00
5780;BME280;2916;49.798;10.022;2023-03-31T08:05:55;146564.41;;;9.21;100.00
5780;BME280;2916;49.798;10.022;2023-03-31T08:08:22;146587.94;;;9.30;100.00
5780;BME280;2916;49.798;10.022;2023-03-31T08:10:51;146590.47;;;9.31;100.00
5780;BME280;2916;49.798;10.022;2023-03-31T08:13:18;146555.72;;;9.17;100.00
5780;BME280;2916;49.798;10.022;2023-03-31T08:15:45;146580.50;;;9.27;100.00
5780;BME280;2916;49.798;10.022;2023-03-31T08:18:12;146617.69;;;9.43;100.00
5780;BME280;2916;49.798;10.022;2023-03-31T08:20:41;146625.16;;;9.46;100.00
5780;BME280;2916;49.798;10.022;2023-03-31T08:23:09;146644.97;;;9.54;100.00
5780;BME280;2916;49.798;10.022;2023-03-31T08:25:37;146651.19;;;9.56;100.00
5780;BME280;2916;49.798;10.022;2023-03-31T08:28:04;146689.63;;;9.72;100.00
5780;BME280;2916;49.798;10.022;2023-03-31T08:30:31;146607.78;;;9.39;100.00
5780;BME280;2916;49.798;10.022;2023-03-31T08:32:59;146667.34;;;9.63;100.00
5780;BME280;2916;49.798;10.022;2023-03-31T08:35:26;146682.19;;;9.69;100.00
5780;BME280;2916;49.798;10.022;2023-03-31T08:37:55;146694.56;;;9.74;100.00
5780;BME280;2916;49.798;10.022;2023-03-31T08:40:26;146693.34;;;9.74;100.00
5780;BME280;2916;49.798;10.022;2023-03-31T08:42:58;146673.50;;;9.66;100.00
5780;BME280;2916;49.798;10.022;2023-03-31T08:45:31;146707.00;;;9.79;100.00
5780;BME280;2916;49.798;10.022;2023-03-31T08:48:05;146714.47;;;9.82;100.00
5780;BME280;2916;49.798;10.022;2023-03-31T08:50:44;146719.41;;;9.84;100.00
5780;BME280;2916;49.798;10.022;2023-03-31T08:53:26;146754.16;;;9.99;100.00
5780;BME280;2916;49.798;10.022;2023-03-31T08:55:56;146771.47;;;10.06;100.00
5780;BME280;2916;49.798;10.022;2023-03-31T08:58:39;146792.59;;;10.15;100.00
5780;BME280;2916;49.798;10.022;2023-03-31T09:01:18;146716.94;;;9.83;100.00
5780;BME280;2916;49.798;10.022;2023-03-31T09:04:08;146845.97;;;10.37;100.00
5780;BME280;2916;49.798;10.022;2023-03-31T09:06:49;146920.44;;;10.67;100.00
5780;BME280;2916;49.798;10.022;2023-03-31T09:09:29;146950.22;;;10.79;100.00
5780;BME280;2916;49.798;10.022;2023-03-31T09:12:04;146989.94;;;10.96;100.00
5780;BME280;2916;49.798;10.022;2023-03-31T09:14:39;147045.78;;;11.19;100.00
5780;BME280;2916;49.798;10.022;2023-03-31T09:17:19;147097.97;;;11.40;100.00
5780;BME280;2916;49.798;10.022;2023-03-31T09:19:53;146875.75;;;10.49;98.56
5780;BME280;2916;49.798;10.022;2023-03-31T09:22:26;146756.63;;;10.00;96.45
5780;BME280;2916;49.798;10.022;2023-03-31T09:25:04;146759.09;;;10.01;98.25
5780;BME280;2916;49.798;10.022;2023-03-31T09:27:33;146684.66;;;9.70;99.16
5780;BME280;2916;49.798;10.022;2023-03-31T09:30:08;146711.94;;;9.81;97.13
5780;BME280;2916;49.798;10.022;2023-03-31T09:32:38;146733.03;;;9.90;97.04
5780;BME280;2916;49.798;10.022;2023-03-31T09:35:17;146564.41;;;9.21;97.81
5780;BME280;2916;49.798;10.022;2023-03-31T09:37:47;146707.00;;;9.79;98.95
5780;BME280;2916;49.798;10.022;2023-03-31T09:40:20;146699.56;;;9.76;98.30
5780;BME280;2916;49.798;10.022;2023-03-31T09:42:59;146652.44;;;9.57;97.35
5780;BME280;2916;49.798;10.022;2023-03-31T09:45:27;146618.97;;;9.43;94.91
5780;BME280;2916;49.798;10.022;2023-03-31T09:48:02;146659.88;;;9.60;95.33
5780;BME280;2916;49.798;10.022;2023-03-31T09:50:46;146627.63;;;9.47;96.08
5780;BME280;2916;49.798;10.022;2023-03-31T09:53:21;146585.47;;;9.29;97.73
5780;BME280;2916;49.798;10.022;2023-03-31T09:55:54;146573.09;;;9.24;99.08
5780;BME280;2916;49.798;10.022;2023-03-31T09:58:26;146566.88;;;9.22;99.89
5780;BME280;2916;49.798;10.022;2023-03-31T10:00:59;146568.13;;;9.22;100.00
5780;BME280;2916;49.798;10.022;2023-03-31T10:03:29;146566.88;;;9.22;100.00
5780;BME280;2916;49.798;10.022;2023-03-31T10:06:07;146591.69;;;9.32;100.00
5780;BME280;2916;49.798;10.022;2023-03-31T10:08:39;146609.00;;;9.39;100.00
5780;BME280;2916;49.798;10.022;2023-03-31T10:11:11;146581.78;;;9.28;100.00
5780;BME280;2916;49.798;10.022;2023-03-31T10:13:46;146563.19;;;9.20;100.00
5780;BME280;2916;49.798;10.022;2023-03-31T10:16:22;146583.00;;;9.28;100.00
5780;BME280;2916;49.798;10.022;2023-03-31T10:18:49;146595.41;;;9.33;100.00
5780;BME280;2916;49.798;10.022;2023-03-31T10:21:22;146576.78;;;9.26;100.00
5780;BME280;2916;49.798;10.022;2023-03-31T10:23:51;146527.22;;;9.05;100.00
5780;BME280;2916;49.798;10.022;2023-03-31T10:26:24;146376.00;;;8.43;100.00
5780;BME280;2916;49.798;10.022;2023-03-31T10:28:53;146570.56;;;9.23;100.00
5780;BME280;2916;49.798;10.022;2023-03-31T10:31:25;146620.22;;;9.44;100.00
5780;BME280;2916;49.798;10.022;2023-03-31T10:33:54;146592.91;;;9.32;100.00
5780;BME280;2916;49.798;10.022;2023-03-31T10:36:26;146610.28;;;9.40;100.00
5780;BME280;2916;49.798;10.022;2023-03-31T10:38:56;146620.22;;;9.44;100.00
5780;BME280;2916;49.798;10.022;2023-03-31T10:41:27;146605.31;;;9.38;100.00
5780;BME280;2916;49.798;10.022;2023-03-31T10:43:56;146550.75;;;9.15;100.00
5780;BME280;2916;49.798;10.022;2023-03-31T10:46:41;146514.84;;;9.00;99.74
5780;BME280;2916;49.798;10.022;2023-03-31T10:49:25;146444.16;;;8.71;99.98
5780;BME280;2916;49.798;10.022;2023-03-31T10:51:54;146543.34;;;9.12;98.75
5780;BME280;2916;49.798;10.022;2023-03-31T10:54:22;146509.84;;;8.98;96.49
5780;BME280;2916;49.798;10.022;2023-03-31T10:56:54;146539.59;;;9.10;95.47
5780;BME280;2916;49.798;10.022;2023-03-31T10:59:49;146493.72;;;8.92;95.28
5780;BME280;2916;49.798;10.022;2023-03-31T11:03:06;146480.09;;;8.86;97.26
5780;BME280;2916;49.798;10.022;2023-03-31T11:05:45;146426.81;;;8.64;97.02
5780;BME280;2916;49.798;10.022;2023-03-31T11:08:36;146349.94;;;8.32;97.21
5780;BME280;2916;49.798;10.022;2023-03-31T11:11:29;146394.59;;;8.51;95.33
5780;BME280;2916;49.798;10.022;2023-03-31T11:14:13;146373.53;;;8.42;95.75
5780;BME280;2916;49.798;10.022;2023-03-31T11:16:51;146416.88;;;8.60;91.42
5780;BME280;2916;49.798;10.022;2023-03-31T11:19:32;146442.94;;;8.71;90.69
5780;BME280;2916;49.798;10.022;2023-03-31T11:22:12;146476.41;;;8.84;89.88
5780;BME280;2916;49.798;10.022;2023-03-31T11:25:19;146456.59;;;8.76;89.47
5780;BME280;2916;49.798;10.022;2023-03-31T11:28:25;146516.06;;;9.01;87.57
5780;BME280;2916;49.798;10.022;2023-03-31T11:31:16;146556.97;;;9.18;89.41
5780;BME280;2916;49.798;10.022;2023-03-31T11:34:28;146568.13;;;9.22;90.83
5780;BME280;2916;49.798;10.022;2023-03-31T11:37:25;146550.75;;;9.15;91.69
5780;BME280;2916;49.798;10.022;2023-03-31T11:40:20;146632.59;;;9.49;91.29
5780;BME280;2916;49.798;10.022;2023-03-31T11:42:58;146831.09;;;10.30;95.33
5780;BME280;2916;49.798;10.022;2023-03-31T11:45:35;146925.41;;;10.69;93.26
5780;BME280;2916;49.798;10.022;2023-03-31T11:48:15;146972.59;;;10.89;91.02
5780;BME280;2916;49.798;10.022;2023-03-31T11:50:46;147004.84;;;11.02;91.64
5780;BME280;2916;49.798;10.022;2023-03-31T11:53:17;146970.06;;;10.88;88.66
5780;BME280;2916;49.798;10.022;2023-03-31T11:55:50;146980.00;;;10.92;90.12
5780;BME280;2916;49.798;10.022;2023-03-31T11:58:23;146967.59;;;10.87;89.56
5780;BME280;2916;49.798;10.022;2023-03-31T12:00:59;147045.78;;;11.19;90.94
5780;BME280;2916;49.798;10.022;2023-03-31T12:03:38;147032.16;;;11.13;88.59
5780;BME280;2916;49.798;10.022;2023-03-31T12:06:12;147039.63;;;11.16;90.50
5780;BME280;2916;49.798;10.022;2023-03-31T12:08:52;146972.59;;;10.89;89.42
5780;BME280;2916;49.798;10.022;2023-03-31T12:11:30;146885.66;;;10.53;88.61
5780;BME280;2916;49.798;10.022;2023-03-31T12:14:12;146891.88;;;10.55;87.53
5780;BME280;2916;49.798;10.022;2023-03-31T12:16:45;146920.44;;;10.67;88.60
5780;BME280;2916;49.798;10.022;2023-03-31T12:19:20;146879.50;;;10.50;87.65
5780;BME280;2916;49.798;10.022;2023-03-31T12:21:52;146824.88;;;10.28;85.77
5780;BME280;2916;49.798;10.022;2023-03-31T12:24:21;146848.50;;;10.38;84.72
5780;BME280;2916;49.798;10.022;2023-03-31T12:27:00;146930.34;;;10.71;87.55
5780;BME280;2916;49.798;10.022;2023-03-31T12:29:33;146965.13;;;10.86;87.33
5780;BME280;2916;49.798;10.022;2023-03-31T12:32:07;147081.81;;;11.34;85.16
5780;BME280;2916;49.798;10.022;2023-03-31T12:34:45;147165.03;;;11.68;84.85
5780;BME280;2916;49.798;10.022;2023-03-31T12:37:59;147090.50;;;11.37;84.66
5780;BME280;2916;49.798;10.022;2023-03-31T12:40:51;147038.34;;;11.16;83.72
5780;BME280;2916;49.798;10.022;2023-03-31T12:43:41;147019.72;;;11.08;82.90
5780;BME280;2916;49.798;10.022;2023-03-31T12:46:39;147014.78;;;11.06;81.41
5780;BME280;2916;49.798;10.022;2023-03-31T12:49:21;147092.97;;;11.38;81.83
5780;BME280;2916;49.798;10.022;2023-03-31T12:52:03;147121.53;;;11.50;81.87
5780;BME280;2916;49.798;10.022;2023-03-31T12:55:10;147186.13;;;11.76;80.32
5780;BME280;2916;49.798;10.022;2023-03-31T12:57:46;147222.19;;;11.91;81.03
5780;BME280;2916;49.798;10.022;2023-03-31T13:00:25;147188.59;;;11.77;80.42
5780;BME280;2916;49.798;10.022;2023-03-31T13:03:39;147273.13;;;12.12;80.90
5780;BME280;2916;49.798;10.022;2023-03-31T13:06:10;147232.13;;;11.95;79.90
5780;BME280;2916;49.798;10.022;2023-03-31T13:08:54;147239.56;;;11.98;79.43
5780;BME280;2916;49.798;10.022;2023-03-31T13:11:36;147284.28;;;12.17;80.03
5780;BME280;2916;49.798;10.022;2023-03-31T13:14:12;147291.75;;;12.20;79.74
5780;BME280;2916;49.798;10.022;2023-03-31T13:16:41;147263.19;;;12.08;80.96
5780;BME280;2916;49.798;10.022;2023-03-31T13:19:26;147208.50;;;11.86;80.89
5780;BME280;2916;49.798;10.022;2023-03-31T13:21:55;147294.22;;;12.21;80.14
5780;BME280;2916;49.798;10.022;2023-03-31T13:24:27;147347.66;;;12.43;80.06
5780;BME280;2916;49.798;10.022;2023-03-31T13:26:57;147297.97;;;12.22;80.24
5780;BME280;2916;49.798;10.022;2023-03-31T13:29:39;147295.47;;;12.21;79.92
5780;BME280;2916;49.798;10.022;2023-03-31T13:32:21;147220.97;;;11.91;81.89
5780;BME280;2916;49.798;10.022;2023-03-31T13:34:56;147343.91;;;12.41;81.77
5780;BME280;2916;49.798;10.022;2023-03-31T13:37:51;147345.19;;;12.42;80.68
5780;BME280;2916;49.798;10.022;2023-03-31T13:40:52;147370.03;;;12.52;80.07
5780;BME280;2916;49.798;10.022;2023-03-31T13:44:10;147412.31;;;12.69;79.52
5780;BME280;2916;49.798;10.022;2023-03-31T13:50:34;147525.38;;;13.16;77.50
5780;BME280;2916;49.798;10.022;2023-03-31T13:53:22;147517.94;;;13.13;75.56
5780;BME280;2916;49.798;10.022;2023-03-31T13:59:39;147499.31;;;13.05;77.61
5780;BME280;2916;49.798;10.022;2023-03-31T14:02:57;147457.00;;;12.88;77.63
5780;BME280;2916;49.798;10.022;2023-03-31T14:05:35;147444.59;;;12.83;75.17
5780;BME280;2916;49.798;10.022;2023-03-31T14:08:08;147463.25;;;12.90;75.72